createdAt,value
2023-03-01T00:01:51.254Z,6.53
2023-03-01T00:04:17.884Z,6.55
2023-03-01T00:06:47.080Z,6.65
2023-03-01T00:09:14.343Z,7.18
2023-03-01T00:11:41.222Z,6.50
2023-03-01T00:14:07.990Z,6.90
2023-03-01T00:16:36.338Z,6.90
2023-03-01T00:19:03.379Z,6.65
2023-03-01T00:21:29.921Z,7.18
2023-03-01T00:23:57.196Z,7.05
2023-03-01T00:26:24.549Z,7.20
2023-03-01T00:28:51.694Z,7.22
2023-03-01T00:31:22.692Z,7.63
2023-03-01T00:33:49.566Z,7.68
2023-03-01T00:36:17.342Z,7.60
2023-03-01T00:38:45.404Z,7.20
2023-03-01T00:41:14.064Z,7.35
2023-03-01T00:43:40.662Z,6.93
2023-03-01T00:46:09.758Z,7.55
2023-03-01T00:48:36.549Z,7.30
2023-03-01T00:51:29.145Z,8.02
2023-03-01T00:53:58.139Z,7.75
2023-03-01T00:56:25.686Z,8.30
2023-03-01T00:58:52.407Z,8.02
2023-03-01T01:01:23.029Z,8.15
2023-03-01T01:03:54.288Z,8.10
2023-03-01T01:06:22.329Z,8.38
2023-03-01T01:08:49.456Z,8.32
2023-03-01T01:11:16.522Z,8.05
2023-03-01T01:13:43.082Z,8.52
2023-03-01T01:16:09.627Z,7.55
2023-03-01T01:18:36.650Z,7.90
2023-03-01T01:21:07.300Z,8.10
2023-03-01T01:23:33.961Z,8.25
2023-03-01T01:26:10.244Z,8.07
2023-03-01T01:28:37.164Z,8.68
2023-03-01T01:31:04.069Z,8.45
2023-03-01T01:33:30.843Z,9.35
2023-03-01T01:35:57.441Z,8.52
2023-03-01T01:38:24.834Z,8.07
2023-03-01T01:40:52.061Z,7.97
2023-03-01T01:43:23.886Z,9.70
2023-03-01T01:45:50.860Z,9.07
2023-03-01T01:48:19.915Z,9.07
2023-03-01T01:50:48.746Z,8.20
2023-03-01T01:53:20.365Z,8.95
2023-03-01T01:55:48.774Z,9.30
2023-03-01T01:58:18.420Z,8.70
2023-03-01T02:00:45.279Z,7.97
2023-03-01T02:03:13.881Z,8.60
2023-03-01T02:05:40.749Z,8.95
2023-03-01T02:08:07.639Z,9.48
2023-03-01T02:10:35.532Z,9.02
2023-03-01T02:13:03.594Z,9.35
2023-03-01T02:15:33.243Z,10.25
2023-03-01T02:17:59.980Z,9.93
2023-03-01T02:20:29.376Z,9.10
2023-03-01T02:22:56.160Z,9.40
2023-03-01T02:25:41.133Z,10.00
2023-03-01T02:28:11.204Z,10.65
2023-03-01T02:30:37.990Z,10.70
2023-03-01T02:33:05.282Z,10.05
2023-03-01T02:35:33.562Z,10.18
2023-03-01T02:38:01.898Z,10.50
2023-03-01T02:40:29.579Z,11.27
2023-03-01T02:42:57.841Z,10.18
2023-03-01T02:45:24.655Z,9.85
2023-03-01T02:47:51.468Z,9.80
2023-03-01T02:50:30.038Z,10.40
2023-03-01T02:53:05.435Z,10.38
2023-03-01T02:55:32.131Z,10.10
2023-03-01T02:58:01.181Z,10.43
2023-03-01T03:00:35.685Z,10.23
2023-03-01T03:03:05.429Z,10.85
2023-03-01T03:05:34.783Z,10.02
2023-03-01T03:08:06.120Z,10.27
2023-03-01T03:10:37.709Z,10.75
2023-03-01T03:13:06.238Z,10.20
2023-03-01T03:15:37.097Z,10.25
2023-03-01T03:18:05.350Z,10.13
2023-03-01T03:20:32.798Z,9.90
2023-03-01T03:22:59.719Z,9.57
2023-03-01T03:25:27.583Z,9.90
2023-03-01T03:27:57.858Z,10.63
2023-03-01T03:30:32.075Z,10.52
2023-03-01T03:32:59.345Z,10.23
2023-03-01T03:35:33.706Z,10.55
2023-03-01T03:38:03.007Z,10.73
2023-03-01T03:40:49.782Z,9.48
2023-03-01T03:43:20.426Z,10.77
2023-03-01T03:45:48.148Z,10.45
2023-03-01T03:48:15.166Z,11.10
2023-03-01T03:50:41.868Z,11.43
2023-03-01T03:53:09.731Z,11.32
2023-03-01T03:55:40.235Z,11.45
2023-03-01T03:58:10.782Z,10.30
2023-03-01T04:00:42.041Z,11.52
2023-03-01T04:03:09.284Z,11.45
2023-03-01T04:05:36.666Z,11.98
2023-03-01T04:08:03.325Z,12.10
2023-03-01T04:10:30.719Z,12.15
2023-03-01T04:12:57.973Z,12.55
2023-03-01T04:15:25.782Z,11.65
2023-03-01T04:17:53.006Z,13.10
2023-03-01T04:20:25.671Z,12.48
2023-03-01T04:23:17.210Z,12.82
2023-03-01T04:25:46.628Z,12.30
2023-03-01T04:28:13.196Z,12.35
2023-03-01T04:30:40.208Z,12.25
2023-03-01T04:33:07.975Z,12.45
2023-03-01T04:35:35.748Z,12.43
2023-03-01T04:38:02.885Z,12.20
2023-03-01T04:40:29.718Z,11.65
2023-03-01T04:42:56.211Z,12.45
2023-03-01T04:45:22.964Z,11.30
2023-03-01T04:47:50.131Z,11.18
2023-03-01T04:50:17.729Z,11.75
2023-03-01T04:52:45.252Z,11.68
2023-03-01T04:55:11.803Z,11.13
2023-03-01T04:57:38.356Z,11.20
2023-03-01T05:00:21.704Z,10.60
2023-03-01T05:02:50.023Z,11.02
2023-03-01T05:05:16.576Z,10.30
2023-03-01T05:07:43.374Z,9.82
2023-03-01T05:10:10.168Z,11.10
2023-03-01T05:12:38.453Z,9.25
2023-03-01T05:15:08.192Z,9.73
2023-03-01T05:17:35.216Z,9.68
2023-03-01T05:20:02.147Z,9.52
2023-03-01T05:22:28.934Z,9.70
2023-03-01T05:24:56.106Z,9.70
2023-03-01T05:27:23.216Z,8.57
2023-03-01T05:29:49.937Z,9.80
2023-03-01T05:32:17.267Z,9.65
2023-03-01T05:34:43.899Z,9.05
2023-03-01T05:37:10.565Z,8.70
2023-03-01T05:39:37.557Z,9.88
2023-03-01T05:42:04.323Z,10.32
2023-03-01T05:44:31.436Z,10.15
2023-03-01T05:46:58.327Z,9.77
2023-03-01T05:49:25.070Z,9.90
2023-03-01T05:51:52.933Z,9.95
2023-03-01T05:54:20.373Z,10.38
2023-03-01T05:56:46.876Z,10.25
2023-03-01T05:59:14.759Z,10.45
2023-03-01T06:01:41.818Z,10.25
2023-03-01T06:04:08.304Z,11.20
2023-03-01T06:06:35.668Z,10.70
2023-03-01T06:09:02.179Z,11.40
2023-03-01T06:11:28.976Z,12.07
2023-03-01T06:13:55.430Z,12.70
2023-03-01T06:16:22.019Z,13.30
2023-03-01T06:18:48.476Z,12.10
2023-03-01T06:21:15.350Z,12.80
2023-03-01T06:23:41.834Z,12.38
2023-03-01T06:26:09.015Z,12.75
2023-03-01T06:28:36.225Z,13.20
2023-03-01T06:31:03.234Z,13.70
2023-03-01T06:33:29.909Z,12.45
2023-03-01T06:35:57.635Z,13.77
2023-03-01T06:38:25.714Z,12.75
2023-03-01T06:40:53.161Z,12.55
2023-03-01T06:43:19.626Z,12.10
2023-03-01T06:45:46.699Z,13.23
2023-03-01T06:48:13.194Z,13.20
2023-03-01T06:50:40.050Z,12.82
2023-03-01T06:53:06.611Z,13.50
2023-03-01T06:55:33.757Z,12.70
2023-03-01T06:58:00.886Z,12.80
2023-03-01T07:00:27.841Z,13.48
2023-03-01T07:02:54.384Z,14.38
2023-03-01T07:05:21.364Z,13.50
2023-03-01T07:07:47.986Z,14.77
2023-03-01T07:10:14.596Z,15.60
2023-03-01T07:12:42.315Z,14.73
2023-03-01T07:15:10.536Z,15.15
2023-03-01T07:17:37.047Z,14.18
2023-03-01T07:20:03.875Z,13.50
2023-03-01T07:22:30.390Z,14.20
2023-03-01T07:24:57.062Z,14.20
2023-03-01T07:27:23.584Z,14.77
2023-03-01T07:31:34.219Z,12.90
2023-03-01T07:34:00.973Z,12.77
2023-03-01T07:36:31.015Z,12.20
2023-03-01T07:39:03.484Z,11.35
2023-03-01T07:41:30.497Z,11.45
2023-03-01T07:43:57.028Z,10.77
2023-03-01T07:46:23.971Z,11.00
2023-03-01T07:48:50.626Z,10.48
2023-03-01T07:51:17.153Z,10.82
2023-03-01T07:53:46.518Z,10.32
2023-03-01T07:56:13.986Z,10.50
2023-03-01T07:58:41.569Z,10.68
2023-03-01T08:01:09.497Z,9.80
2023-03-01T08:03:36.147Z,9.25
2023-03-01T08:06:03.827Z,9.48
2023-03-01T08:08:30.898Z,9.55
2023-03-01T08:10:58.050Z,8.40
2023-03-01T08:13:24.670Z,7.97
2023-03-01T08:15:52.139Z,8.00
2023-03-01T08:18:19.592Z,7.85
2023-03-01T08:20:46.552Z,6.75
2023-03-01T08:23:13.163Z,6.28
2023-03-01T08:25:40.355Z,6.55
2023-03-01T08:28:06.868Z,5.88
2023-03-01T08:30:33.587Z,6.40
2023-03-01T08:33:00.246Z,7.15
2023-03-01T08:35:27.082Z,6.40
2023-03-01T08:37:53.809Z,6.13
2023-03-01T08:40:21.137Z,6.40
2023-03-01T08:42:47.930Z,6.00
2023-03-01T08:45:19.218Z,5.22
2023-03-01T08:47:46.504Z,6.18
2023-03-01T08:50:13.193Z,6.55
2023-03-01T08:52:39.857Z,5.47
2023-03-01T08:55:07.035Z,5.15
2023-03-01T08:57:33.604Z,5.38
2023-03-01T09:00:00.322Z,5.15
2023-03-01T09:02:26.937Z,5.43
2023-03-01T09:04:53.491Z,4.50
2023-03-01T09:07:20.503Z,4.40
2023-03-01T09:09:47.458Z,4.32
2023-03-01T09:12:14.161Z,4.63
2023-03-01T09:14:42.223Z,3.80
2023-03-01T09:17:09.114Z,3.70
2023-03-01T09:19:35.797Z,3.65
2023-03-01T09:22:03.767Z,3.85
2023-03-01T09:24:30.495Z,3.88
2023-03-01T09:26:57.625Z,3.50
2023-03-01T09:29:24.299Z,3.30
2023-03-01T09:31:51.029Z,3.45
2023-03-01T09:34:24.215Z,3.30
2023-03-01T09:36:51.637Z,3.05
2023-03-01T09:39:21.730Z,3.60
2023-03-01T09:41:50.850Z,3.25
2023-03-01T09:44:17.391Z,3.17
2023-03-01T09:46:45.195Z,3.05
2023-03-01T09:49:49.587Z,3.08
2023-03-01T09:52:26.688Z,3.03
2023-03-01T09:54:55.532Z,2.97
2023-03-01T09:57:27.803Z,2.63
2023-03-01T10:00:12.745Z,2.92
2023-03-01T10:02:48.090Z,2.80
2023-03-01T10:05:22.355Z,2.72
2023-03-01T10:08:00.818Z,2.83
2023-03-01T10:10:29.275Z,2.90
2023-03-01T10:12:56.401Z,2.65
2023-03-01T10:15:36.489Z,3.15
2023-03-01T10:18:08.521Z,2.83
2023-03-01T10:20:43.811Z,2.97
2023-03-01T10:23:10.893Z,2.72
2023-03-01T10:25:45.664Z,2.97
2023-03-01T10:28:26.159Z,3.13
2023-03-01T10:30:53.232Z,2.80
2023-03-01T10:33:25.695Z,2.90
2023-03-01T10:35:52.779Z,3.08
2023-03-01T10:38:21.539Z,3.05
2023-03-01T10:40:55.496Z,3.40
2023-03-01T10:43:22.947Z,3.45
2023-03-01T10:45:49.744Z,3.28
2023-03-01T10:48:27.430Z,3.30
2023-03-01T10:50:59.852Z,4.07
2023-03-01T10:53:32.789Z,3.08
2023-03-01T10:56:07.257Z,3.22
2023-03-01T10:58:34.969Z,3.63
2023-03-01T11:01:03.980Z,3.10
2023-03-01T11:03:35.600Z,3.47
2023-03-01T11:06:05.087Z,3.20
2023-03-01T11:08:37.909Z,3.13
2023-03-01T11:11:05.716Z,3.63
2023-03-01T11:13:32.371Z,3.63
2023-03-01T11:16:00.176Z,3.33
2023-03-01T11:18:44.297Z,3.53
2023-03-01T11:21:12.767Z,4.05
2023-03-01T11:23:40.196Z,4.70
2023-03-01T11:26:11.433Z,4.90
2023-03-01T11:28:40.850Z,5.00
2023-03-01T11:31:13.332Z,3.60
2023-03-01T11:33:39.970Z,3.63
2023-03-01T11:36:08.630Z,3.85
2023-03-01T11:38:36.430Z,3.80
2023-03-01T11:41:09.020Z,3.85
2023-03-01T11:43:38.599Z,4.32
2023-03-01T11:46:23.814Z,4.35
2023-03-01T11:51:21.799Z,4.05
2023-03-01T11:53:48.306Z,3.95
2023-03-01T11:56:26.070Z,4.20
2023-03-01T11:59:04.443Z,3.42
2023-03-01T12:01:31.920Z,3.40
2023-03-01T12:03:58.805Z,3.70
2023-03-01T12:06:33.876Z,3.75
2023-03-01T12:09:00.510Z,3.92
2023-03-01T12:11:36.168Z,4.20
2023-03-01T12:14:09.203Z,3.95
2023-03-01T12:16:50.126Z,3.70
2023-03-01T12:19:31.856Z,3.95
2023-03-01T12:22:06.152Z,4.55
2023-03-01T12:24:52.664Z,3.72
2023-03-01T12:27:21.968Z,4.32
2023-03-01T12:29:51.595Z,3.70
2023-03-01T12:32:27.262Z,3.55
2023-03-01T12:35:06.098Z,3.75
2023-03-01T12:37:56.689Z,4.00
2023-03-01T12:40:25.791Z,3.88
2023-03-01T12:43:16.146Z,3.45
2023-03-01T12:45:55.661Z,3.60
2023-03-01T12:48:22.290Z,3.53
2023-03-01T12:50:50.410Z,4.22
2023-03-01T12:53:28.137Z,3.78
2023-03-01T12:55:56.977Z,3.80
2023-03-01T12:58:49.585Z,4.38
2023-03-01T13:01:17.235Z,4.03
2023-03-01T13:04:03.055Z,3.92
2023-03-01T13:06:49.102Z,4.07
2023-03-01T13:09:20.749Z,3.92
2023-03-01T13:11:47.508Z,3.85
2023-03-01T13:14:25.876Z,3.95
2023-03-01T13:16:53.220Z,4.40
2023-03-01T13:19:23.680Z,4.35
2023-03-01T13:21:51.680Z,4.68
2023-03-01T13:24:24.967Z,4.35
2023-03-01T13:27:06.650Z,4.10
2023-03-01T13:29:48.598Z,4.10
2023-03-01T13:32:31.706Z,4.78
2023-03-01T13:35:20.598Z,4.22
2023-03-01T13:37:47.252Z,4.32
2023-03-01T13:40:17.623Z,4.82
2023-03-01T13:42:56.239Z,4.32
2023-03-01T13:45:44.030Z,4.53
2023-03-01T13:48:19.839Z,4.43
2023-03-01T13:50:49.288Z,4.47
2023-03-01T13:53:18.835Z,4.75
2023-03-01T13:55:47.506Z,4.50
2023-03-01T13:58:17.274Z,4.63
2023-03-01T14:00:43.979Z,4.43
2023-03-01T14:03:15.354Z,4.43
2023-03-01T14:05:43.510Z,4.80
2023-03-01T14:08:21.130Z,4.65
2023-03-01T14:11:06.491Z,4.38
2023-03-01T14:16:08.950Z,4.60
2023-03-01T14:18:46.895Z,4.45
2023-03-01T14:21:15.413Z,4.45
2023-03-01T14:23:43.183Z,4.50
2023-03-01T14:26:10.132Z,4.88
2023-03-01T14:28:39.266Z,5.00
2023-03-01T14:31:26.867Z,4.50
2023-03-01T14:33:56.873Z,4.75
2023-03-01T14:36:31.079Z,4.55
2023-03-01T14:39:05.923Z,4.53
2023-03-01T14:41:36.822Z,4.10
2023-03-01T14:44:07.636Z,4.93
2023-03-01T14:46:35.798Z,5.15
2023-03-01T14:49:22.691Z,5.38
2023-03-01T14:51:58.176Z,5.05
2023-03-01T14:54:26.891Z,4.80
2023-03-01T14:56:54.556Z,4.70
2023-03-01T14:59:23.099Z,5.25
2023-03-01T15:01:50.017Z,4.93
2023-03-01T15:04:17.033Z,4.78
2023-03-01T15:06:44.254Z,5.70
2023-03-01T15:09:16.864Z,5.18
2023-03-01T15:11:44.794Z,5.25
2023-03-01T15:14:39.986Z,5.50
2023-03-01T15:17:16.739Z,5.30
2023-03-01T15:19:43.419Z,4.70
2023-03-01T15:22:16.029Z,5.25
2023-03-01T15:24:42.806Z,5.97
2023-03-01T15:27:16.854Z,5.68
2023-03-01T15:29:49.052Z,4.95
2023-03-01T15:32:21.875Z,5.10
2023-03-01T15:34:48.607Z,4.68
2023-03-01T15:37:34.280Z,4.90
2023-03-01T15:40:01.088Z,5.00
2023-03-01T15:42:30.616Z,5.03
2023-03-01T15:45:10.829Z,4.82
2023-03-01T15:47:39.823Z,4.57
2023-03-01T15:50:06.763Z,4.68
2023-03-01T15:52:40.488Z,5.03
2023-03-01T15:55:15.247Z,4.78
2023-03-01T15:57:42.074Z,4.22
2023-03-01T16:00:14.233Z,4.47
2023-03-01T16:02:41.959Z,4.78
2023-03-01T16:05:23.028Z,4.72
2023-03-01T16:07:50.284Z,5.13
2023-03-01T16:10:17.307Z,4.45
2023-03-01T16:12:43.961Z,4.63
2023-03-01T16:15:18.009Z,4.70
2023-03-01T16:17:44.792Z,5.15
2023-03-01T16:20:19.649Z,4.93
2023-03-01T16:22:49.879Z,4.60
2023-03-01T16:25:17.990Z,5.32
2023-03-01T16:27:45.224Z,4.68
2023-03-01T16:30:13.167Z,4.80
2023-03-01T16:32:40.436Z,4.35
2023-03-01T16:35:08.185Z,5.00
2023-03-01T16:37:35.785Z,4.70
2023-03-01T16:40:02.860Z,5.13
2023-03-01T16:42:29.571Z,4.65
2023-03-01T16:45:00.058Z,4.55
2023-03-01T16:47:26.605Z,5.43
2023-03-01T16:49:53.752Z,4.03
2023-03-01T16:52:20.889Z,4.43
2023-03-01T16:54:47.501Z,4.95
2023-03-01T16:57:14.067Z,4.70
2023-03-01T16:59:41.441Z,4.60
2023-03-01T17:02:12.016Z,4.63
2023-03-01T17:04:38.958Z,5.20
2023-03-01T17:07:05.749Z,4.30
2023-03-01T17:09:35.981Z,4.47
2023-03-01T17:12:05.834Z,5.30
2023-03-01T17:14:35.826Z,4.65
2023-03-01T17:17:03.698Z,4.65
2023-03-01T17:19:30.504Z,4.95
2023-03-01T17:21:57.169Z,5.25
2023-03-01T17:24:23.706Z,5.18
2023-03-01T17:26:50.397Z,5.15
2023-03-01T17:29:19.044Z,4.80
2023-03-01T17:31:45.734Z,5.45
2023-03-01T17:34:12.629Z,5.35
2023-03-01T17:36:44.160Z,4.82
2023-03-01T17:39:11.204Z,4.72
2023-03-01T17:41:37.842Z,4.63
2023-03-01T17:44:04.570Z,5.13
2023-03-01T17:46:31.479Z,4.57
2023-03-01T17:48:58.402Z,4.10
2023-03-01T17:51:27.661Z,4.40
2023-03-01T17:53:54.348Z,4.30
2023-03-01T17:56:20.990Z,4.75
2023-03-01T17:58:47.879Z,4.10
2023-03-01T18:01:15.934Z,4.85
2023-03-01T18:03:46.564Z,4.80
2023-03-01T18:06:15.483Z,3.80
2023-03-01T18:08:42.409Z,4.10
2023-03-01T18:11:09.936Z,4.00
2023-03-01T18:13:36.949Z,4.43
2023-03-01T18:16:07.947Z,4.45
2023-03-01T18:18:35.071Z,3.72
2023-03-01T18:21:02.335Z,4.07
2023-03-01T18:23:30.431Z,3.92
2023-03-01T18:26:00.790Z,4.53
2023-03-01T18:28:28.528Z,4.70
2023-03-01T18:31:03.743Z,4.30
2023-03-01T18:33:31.160Z,4.40
2023-03-01T18:35:58.610Z,3.90
2023-03-01T18:38:25.347Z,4.65
2023-03-01T18:40:52.802Z,4.07
2023-03-01T18:43:19.535Z,4.72
2023-03-01T18:45:46.454Z,3.90
2023-03-01T18:48:14.185Z,4.30
2023-03-01T18:50:41.601Z,4.32
2023-03-01T18:53:08.750Z,5.03
2023-03-01T18:55:36.771Z,4.68
2023-03-01T18:58:03.438Z,4.47
2023-03-01T19:00:30.181Z,4.63
2023-03-01T19:02:57.618Z,4.32
2023-03-01T19:05:24.419Z,4.53
2023-03-01T19:07:52.427Z,5.05
2023-03-01T19:10:19.754Z,4.35
2023-03-01T19:12:46.316Z,5.93
2023-03-01T19:15:18.620Z,4.55
2023-03-01T19:17:45.392Z,4.38
2023-03-01T19:20:12.558Z,4.53
2023-03-01T19:22:51.906Z,4.85
2023-03-01T19:25:18.595Z,5.20
2023-03-01T19:27:45.365Z,4.28
2023-03-01T19:30:12.438Z,4.82
2023-03-01T19:32:39.086Z,4.53
2023-03-01T19:35:05.928Z,4.47
2023-03-01T19:37:35.636Z,5.00
2023-03-01T19:40:05.330Z,4.72
2023-03-01T19:42:32.072Z,4.95
2023-03-01T19:44:59.715Z,4.88
2023-03-01T19:47:26.406Z,4.50
2023-03-01T19:49:52.889Z,5.00
2023-03-01T19:52:22.645Z,5.10
2023-03-01T19:54:51.947Z,4.70
2023-03-01T19:57:23.737Z,5.35
2023-03-01T19:59:51.429Z,5.32
2023-03-01T20:02:21.501Z,5.15
2023-03-01T20:04:49.095Z,5.47
2023-03-01T20:07:19.236Z,6.03
2023-03-01T20:09:46.251Z,5.93
2023-03-01T20:12:12.898Z,6.00
2023-03-01T20:14:39.760Z,6.53
2023-03-01T20:17:06.533Z,6.65
2023-03-01T20:19:33.533Z,7.35
2023-03-01T20:22:00.138Z,6.55
2023-03-01T20:24:27.305Z,6.38
2023-03-01T20:26:54.015Z,6.75
2023-03-01T20:29:20.758Z,7.18
2023-03-01T20:31:47.485Z,7.03
2023-03-01T20:34:14.300Z,6.20
2023-03-01T20:36:41.706Z,6.78
2023-03-01T20:39:09.898Z,13.07
2023-03-01T20:41:36.640Z,12.30
2023-03-01T20:44:06.466Z,10.45
2023-03-01T20:46:34.307Z,16.10
2023-03-01T20:49:01.599Z,19.65
2023-03-01T20:51:28.444Z,8.18
2023-03-01T20:53:57.880Z,8.80
2023-03-01T20:56:27.044Z,6.97
2023-03-01T20:59:08.320Z,5.78
2023-03-01T21:01:35.046Z,6.50
2023-03-01T21:04:01.930Z,6.18
2023-03-01T21:06:28.850Z,5.60
2023-03-01T21:08:56.347Z,6.32
2023-03-01T21:11:26.261Z,5.93
2023-03-01T21:13:53.377Z,6.40
2023-03-01T21:16:20.936Z,6.22
2023-03-01T21:18:47.708Z,6.10
2023-03-01T21:21:15.610Z,6.72
2023-03-01T21:23:42.694Z,5.75
2023-03-01T21:26:17.052Z,6.20
2023-03-01T21:28:43.962Z,6.20
2023-03-01T21:31:10.506Z,6.20
2023-03-01T21:33:38.042Z,6.65
2023-03-01T21:36:06.420Z,6.47
2023-03-01T21:38:37.188Z,6.03
2023-03-01T21:41:05.536Z,5.85
2023-03-01T21:43:32.022Z,6.20
2023-03-01T21:46:01.663Z,6.40
2023-03-01T21:48:28.410Z,5.45
2023-03-01T21:50:58.620Z,5.70
2023-03-01T21:53:25.562Z,5.80
2023-03-01T21:55:52.294Z,5.43
2023-03-01T21:58:19.623Z,5.75
2023-03-01T22:00:46.496Z,5.70
2023-03-01T22:03:13.742Z,5.20
2023-03-01T22:05:40.419Z,6.15
2023-03-01T22:08:07.872Z,5.53
2023-03-01T22:10:39.025Z,5.88
2023-03-01T22:13:05.899Z,6.50
2023-03-01T22:15:33.260Z,6.25
2023-03-01T22:17:59.990Z,6.32
2023-03-01T22:20:26.514Z,5.85
2023-03-01T22:22:53.234Z,6.22
2023-03-01T22:25:19.779Z,6.05
2023-03-01T22:27:46.561Z,5.35
2023-03-01T22:30:13.780Z,5.85
2023-03-01T22:32:40.797Z,5.38
2023-03-01T22:35:07.675Z,5.60
2023-03-01T22:37:34.374Z,5.30
2023-03-01T22:40:01.045Z,5.53
2023-03-01T22:42:34.257Z,5.20
2023-03-01T22:45:00.897Z,5.00
2023-03-01T22:47:27.536Z,5.45
2023-03-01T22:49:57.006Z,5.35
2023-03-01T22:52:23.570Z,6.13
2023-03-01T22:54:53.630Z,5.30
2023-03-01T22:57:20.382Z,5.55
2023-03-01T22:59:46.923Z,5.45
2023-03-01T23:02:13.711Z,5.82
2023-03-01T23:04:40.358Z,5.85
2023-03-01T23:07:07.036Z,5.22
2023-03-01T23:09:34.565Z,5.50
2023-03-01T23:12:01.999Z,5.30
2023-03-01T23:14:29.800Z,5.70
2023-03-01T23:16:56.842Z,5.22
2023-03-01T23:19:23.515Z,5.45
2023-03-01T23:21:50.602Z,4.63
2023-03-01T23:24:18.899Z,4.88
2023-03-01T23:26:45.935Z,5.05
2023-03-01T23:29:12.713Z,5.40
2023-03-01T23:31:40.144Z,5.78
2023-03-01T23:34:06.968Z,5.15
2023-03-01T23:36:34.284Z,4.82
2023-03-01T23:39:02.810Z,5.15
2023-03-01T23:41:30.794Z,5.22
2023-03-01T23:43:59.003Z,5.30
2023-03-01T23:46:27.749Z,4.85
2023-03-01T23:48:54.878Z,5.47
2023-03-01T23:51:22.143Z,4.78
2023-03-01T23:53:55.903Z,5.15
2023-03-01T23:56:27.389Z,5.03
2023-03-01T23:58:54.851Z,5.25
